ETH707 EDDF-HAAB
Flight info
| Callsign | ETH707 |
|---|---|
| Flight time | N/A |
| Altitude | 37000 |
| Route | CINDY8S/18 CINDY Z74 LAMPU DCT NOMBO Y161 MAH DCT VAVOR DCT RADIZ/N0474F390 DCT GLOMY DCT PETAK DCT DIMIS DCT SALUN N705 BOPIX N710 TAKRI P751 AST/N0482F410 P751 TOMRU DCT KSL/N0483F400 DCT ALRAP/N0482F410 UT124 LABLA LABLA1B |
| Aircraft | A359/H-SDE2E3GHIJ3J4J5LM1ORWXY/LB1D1 |
Departure
| Time | N/A |
|---|---|
| Airport | Frankfurt Main Airport (EDDF) |
Arrival
| Time | 2026-05-03 21:55 |
|---|---|
| Airport | Addis Ababa Bole International Airport (HAAB) |
| Time | Latitude | Longitude | Altitude | Speed | Heading |
|---|---|---|---|---|---|
| 2026-05-03 20:15 | 43.34259 | 17.60222 | 39112 ft | 517 kts | 137° |
| 2026-05-03 20:15 | 43.12125 | 17.85089 | 39103 ft | 518 kts | 138° |
| 2026-05-03 20:16 | 42.89773 | 18.09966 | 39113 ft | 518 kts | 138° |
| 2026-05-03 20:16 | 42.67356 | 18.34676 | 39104 ft | 519 kts | 138° |
| 2026-05-03 20:17 | 42.44840 | 18.59258 | 39130 ft | 520 kts | 138° |
| 2026-05-03 20:17 | 42.22217 | 18.83723 | 39111 ft | 522 kts | 138° |
| 2026-05-03 20:18 | 41.99502 | 19.08058 | 39129 ft | 523 kts | 138° |
| 2026-05-03 20:18 | 41.80471 | 19.28270 | 39118 ft | 525 kts | 138° |
| 2026-05-03 20:19 | 41.55289 | 19.48559 | 39110 ft | 530 kts | 147° |
| 2026-05-03 20:19 | 41.29595 | 19.68221 | 39100 ft | 532 kts | 147° |
| 2026-05-03 20:20 | 41.03878 | 19.87726 | 39104 ft | 533 kts | 148° |
| 2026-05-03 20:20 | 40.78090 | 20.07108 | 39112 ft | 533 kts | 148° |
| 2026-05-03 20:21 | 40.52217 | 20.26380 | 39119 ft | 534 kts | 148° |
| 2026-05-03 20:21 | 40.26318 | 20.45498 | 39124 ft | 535 kts | 148° |
| 2026-05-03 20:22 | 40.00430 | 20.64315 | 39154 ft | 535 kts | 150° |
| 2026-05-03 20:22 | 39.73924 | 20.82547 | 39167 ft | 535 kts | 150° |
| 2026-05-03 20:23 | 39.47546 | 21.00642 | 39166 ft | 536 kts | 151° |
| 2026-05-03 20:23 | 39.21283 | 21.18500 | 39182 ft | 536 kts | 151° |
| 2026-05-03 20:24 | 38.94836 | 21.36330 | 39186 ft | 537 kts | 152° |
| 2026-05-03 20:24 | 38.68347 | 21.54038 | 39194 ft | 538 kts | 152° |
| 2026-05-03 20:25 | 38.41732 | 21.71681 | 39184 ft | 538 kts | 152° |
| 2026-05-03 20:25 | 38.15142 | 21.89161 | 39179 ft | 537 kts | 153° |
| 2026-05-03 20:26 | 37.88408 | 22.06590 | 39198 ft | 540 kts | 153° |
| 2026-05-03 20:26 | 37.61790 | 22.23802 | 39205 ft | 540 kts | 154° |
| 2026-05-03 20:27 | 37.35025 | 22.40969 | 39199 ft | 541 kts | 154° |
| 2026-05-03 20:27 | 37.08150 | 22.58068 | 39178 ft | 542 kts | 154° |
| 2026-05-03 20:28 | 36.81128 | 22.75124 | 39157 ft | 543 kts | 154° |
| 2026-05-03 20:28 | 36.54114 | 22.92042 | 39143 ft | 542 kts | 155° |
| 2026-05-03 20:29 | 36.27108 | 23.08818 | 39143 ft | 542 kts | 156° |
| 2026-05-03 20:29 | 36.00093 | 23.25471 | 39137 ft | 542 kts | 156° |
| 2026-05-03 20:30 | 35.73068 | 23.42003 | 39136 ft | 544 kts | 156° |
| 2026-05-03 20:30 | 35.46012 | 23.58429 | 39130 ft | 542 kts | 157° |
| 2026-05-03 20:31 | 35.19071 | 23.74661 | 39119 ft | 542 kts | 158° |
| 2026-05-03 20:31 | 34.91939 | 23.90887 | 39098 ft | 544 kts | 159° |
| 2026-05-03 20:32 | 34.64741 | 24.07033 | 39101 ft | 545 kts | 159° |
| 2026-05-03 20:32 | 34.37460 | 24.23111 | 39101 ft | 544 kts | 159° |
| 2026-05-03 20:33 | 34.10259 | 24.39027 | 39109 ft | 539 kts | 160° |
| 2026-05-03 20:33 | 33.97225 | 24.48036 | 39097 ft | 549 kts | 144° |
| 2026-05-03 20:33 | 33.85736 | 24.60267 | 39097 ft | 552 kts | 142° |
| 2026-05-03 20:34 | 33.62823 | 24.84855 | 39072 ft | 551 kts | 143° |
| 2026-05-03 20:34 | 33.39826 | 25.09271 | 39092 ft | 552 kts | 143° |
| 2026-05-03 20:35 | 33.16772 | 25.33569 | 39101 ft | 552 kts | 144° |
| 2026-05-03 20:35 | 32.93815 | 25.57589 | 39094 ft | 552 kts | 144° |
| 2026-05-03 20:36 | 32.70847 | 25.81449 | 39094 ft | 546 kts | 144° |
| 2026-05-03 20:36 | 32.47946 | 26.05069 | 39101 ft | 546 kts | 146° |
| 2026-05-03 20:37 | 32.24905 | 26.28669 | 39106 ft | 549 kts | 146° |
| 2026-05-03 20:37 | 32.01771 | 26.52201 | 39105 ft | 549 kts | 146° |
| 2026-05-03 20:38 | 31.78587 | 26.75621 | 39108 ft | 549 kts | 147° |
| 2026-05-03 20:38 | 31.55328 | 26.98956 | 39121 ft | 549 kts | 147° |
| 2026-05-03 20:39 | 31.31963 | 27.21844 | 39129 ft | 537 kts | 156° |
| 2026-05-03 20:39 | 31.18811 | 27.29465 | 39130 ft | 525 kts | 165° |
| 2026-05-03 20:39 | 31.05546 | 27.36572 | 39132 ft | 521 kts | 164° |
| 2026-05-03 20:39 | 30.92523 | 27.44121 | 39143 ft | 534 kts | 152° |
| 2026-05-03 20:40 | 30.80691 | 27.54808 | 39133 ft | 538 kts | 149° |
| 2026-05-03 20:40 | 30.57316 | 27.76480 | 39138 ft | 537 kts | 150° |
| 2026-05-03 20:41 | 30.33941 | 27.97928 | 39140 ft | 535 kts | 150° |
| 2026-05-03 20:41 | 30.10575 | 28.19234 | 39132 ft | 534 kts | 150° |
| 2026-05-03 20:42 | 29.87287 | 28.40554 | 39109 ft | 542 kts | 144° |
| 2026-05-03 20:42 | 29.68398 | 28.68069 | 39102 ft | 551 kts | 135° |
| 2026-05-03 20:43 | 29.49690 | 28.95824 | 39058 ft | 548 kts | 135° |
| 2026-05-03 20:43 | 29.39907 | 29.09011 | 39105 ft | 529 kts | 149° |
| 2026-05-03 20:43 | 29.28343 | 29.19275 | 39101 ft | 525 kts | 153° |
| 2026-05-03 20:44 | 29.05007 | 29.39253 | 39099 ft | 521 kts | 154° |
| 2026-05-03 20:44 | 28.81512 | 29.58669 | 39092 ft | 520 kts | 154° |
| 2026-05-03 20:45 | 28.58144 | 29.77954 | 39096 ft | 518 kts | 154° |
| 2026-05-03 20:45 | 28.34938 | 29.97000 | 39092 ft | 512 kts | 154° |
| 2026-05-03 20:46 | 28.11795 | 30.15886 | 39097 ft | 510 kts | 154° |
| 2026-05-03 20:46 | 27.88719 | 30.34616 | 39069 ft | 510 kts | 154° |
| 2026-05-03 20:47 | 27.65693 | 30.53207 | 39096 ft | 507 kts | 155° |
| 2026-05-03 20:47 | 27.42886 | 30.71524 | 39097 ft | 507 kts | 155° |
| 2026-05-03 20:48 | 27.19729 | 30.90027 | 39257 ft | 506 kts | 155° |
| 2026-05-03 20:48 | 27.08504 | 30.98969 | 40154 ft | 498 kts | 156° |
| 2026-05-03 20:48 | 26.98300 | 31.09776 | 41085 ft | 512 kts | 140° |
| 2026-05-03 20:48 | 26.89229 | 31.22328 | 41107 ft | 523 kts | 139° |
| 2026-05-03 20:49 | 26.79991 | 31.35060 | 41074 ft | 530 kts | 139° |
| 2026-05-03 20:49 | 26.61315 | 31.60605 | 41050 ft | 528 kts | 139° |
| 2026-05-03 20:50 | 26.42693 | 31.85922 | 41017 ft | 526 kts | 139° |
| 2026-05-03 20:50 | 26.24048 | 32.11128 | 40996 ft | 526 kts | 139° |
| 2026-05-03 20:51 | 26.05425 | 32.36167 | 40970 ft | 525 kts | 139° |
| 2026-05-03 20:51 | 25.86822 | 32.61043 | 40954 ft | 523 kts | 140° |
| 2026-05-03 20:52 | 25.66622 | 32.83083 | 40936 ft | 494 kts | 157° |
| 2026-05-03 20:52 | 25.43706 | 32.99834 | 40933 ft | 494 kts | 157° |
| 2026-05-03 20:53 | 25.20761 | 33.16634 | 40924 ft | 495 kts | 157° |
| 2026-05-03 20:53 | 24.97876 | 33.33298 | 40933 ft | 496 kts | 157° |
| 2026-05-03 20:54 | 24.74810 | 33.50027 | 40912 ft | 496 kts | 157° |
| 2026-05-03 20:54 | 24.40316 | 33.74911 | 40932 ft | 491 kts | 156° |
| 2026-05-03 20:55 | 24.17487 | 33.91278 | 40927 ft | 490 kts | 156° |
| 2026-05-03 20:55 | 23.94513 | 34.07685 | 40924 ft | 489 kts | 156° |
| 2026-05-03 20:56 | 23.71882 | 34.23838 | 40923 ft | 488 kts | 156° |
| 2026-05-03 20:56 | 23.49208 | 34.40036 | 40930 ft | 487 kts | 156° |
| 2026-05-03 20:57 | 23.26518 | 34.56179 | 40922 ft | 486 kts | 155° |
| 2026-05-03 20:57 | 23.03828 | 34.72253 | 40918 ft | 486 kts | 155° |
| 2026-05-03 20:58 | 22.81159 | 34.88248 | 40916 ft | 486 kts | 154° |
| 2026-05-03 20:58 | 22.69786 | 34.96249 | 40923 ft | 486 kts | 154° |
| 2026-05-03 21:00 | 21.96107 | 35.45106 | 40930 ft | 462 kts | 179° |
| 2026-05-03 21:00 | 21.80423 | 35.52772 | 40927 ft | 502 kts | 137° |
| 2026-05-03 21:00 | 21.69734 | 35.62018 | 40912 ft | 490 kts | 153° |
| 2026-05-03 21:01 | 21.46894 | 35.78026 | 40892 ft | 491 kts | 153° |
| 2026-05-03 21:01 | 21.24006 | 35.94012 | 40893 ft | 491 kts | 153° |
| 2026-05-03 21:02 | 21.01154 | 36.09912 | 40904 ft | 489 kts | 153° |
| 2026-05-03 21:02 | 20.78293 | 36.25751 | 40897 ft | 489 kts | 153° |
| 2026-05-03 21:03 | 20.65708 | 36.29683 | 40911 ft | 465 kts | 183° |
| 2026-05-03 21:03 | 20.52787 | 36.29712 | 40911 ft | 464 kts | 185° |
| 2026-05-03 21:03 | 20.26889 | 36.29697 | 40917 ft | 465 kts | 185° |
| 2026-05-03 21:04 | 20.01022 | 36.29729 | 40922 ft | 465 kts | 184° |
| 2026-05-03 21:04 | 19.75108 | 36.29760 | 40929 ft | 466 kts | 184° |
| 2026-05-03 21:05 | 19.49194 | 36.29791 | 40943 ft | 466 kts | 184° |
| 2026-05-03 21:05 | 19.23292 | 36.29822 | 40939 ft | 466 kts | 183° |
| 2026-05-03 21:06 | 18.97323 | 36.29853 | 40925 ft | 466 kts | 183° |
| 2026-05-03 21:06 | 18.71330 | 36.29884 | 40925 ft | 467 kts | 183° |
| 2026-05-03 21:07 | 18.45295 | 36.29915 | 40909 ft | 468 kts | 183° |
| 2026-05-03 21:07 | 18.19260 | 36.29946 | 40900 ft | 468 kts | 183° |
| 2026-05-03 21:08 | 17.93385 | 36.29976 | 40895 ft | 467 kts | 183° |
| 2026-05-03 21:08 | 17.67373 | 36.30007 | 40895 ft | 467 kts | 182° |
| 2026-05-03 21:09 | 17.41364 | 36.30037 | 40874 ft | 467 kts | 182° |
| 2026-05-03 21:09 | 17.15400 | 36.30067 | 40864 ft | 467 kts | 182° |
| 2026-05-03 21:10 | 16.89387 | 36.30098 | 40857 ft | 467 kts | 182° |
| 2026-05-03 21:10 | 16.63412 | 36.30128 | 40850 ft | 468 kts | 182° |
| 2026-05-03 21:11 | 16.37333 | 36.30158 | 40845 ft | 469 kts | 182° |
| 2026-05-03 21:11 | 16.15831 | 36.30182 | 40836 ft | 469 kts | 181° |
| 2026-05-03 21:12 | 16.02732 | 36.30198 | 40847 ft | 470 kts | 181° |
| 2026-05-03 21:12 | 15.89652 | 36.30213 | 40854 ft | 470 kts | 181° |
| 2026-05-03 21:13 | 15.76559 | 36.30228 | 40841 ft | 471 kts | 181° |
| 2026-05-03 21:13 | 15.63533 | 36.30243 | 40848 ft | 471 kts | 181° |
| 2026-05-03 21:14 | 15.50323 | 36.30258 | 40848 ft | 472 kts | 181° |
| 2026-05-03 21:14 | 15.37248 | 36.30203 | 40848 ft | 472 kts | 183° |
| 2026-05-03 21:15 | 15.24146 | 36.29279 | 40840 ft | 472 kts | 184° |
| 2026-05-03 21:15 | 15.11022 | 36.28423 | 40841 ft | 472 kts | 184° |
| 2026-05-03 21:16 | 14.97890 | 36.27619 | 40837 ft | 472 kts | 184° |
| 2026-05-03 21:16 | 14.84766 | 36.26814 | 40843 ft | 472 kts | 184° |
| 2026-05-03 21:17 | 14.73772 | 36.26138 | 40845 ft | 473 kts | 184° |
| 2026-05-03 21:17 | 14.58523 | 36.25203 | 40842 ft | 473 kts | 184° |
| 2026-05-03 21:18 | 14.45381 | 36.24398 | 40832 ft | 473 kts | 183° |
| 2026-05-03 21:18 | 14.32218 | 36.23593 | 40845 ft | 473 kts | 183° |
| 2026-05-03 21:19 | 14.19070 | 36.22790 | 40842 ft | 473 kts | 183° |
| 2026-05-03 21:19 | 14.05888 | 36.21988 | 40841 ft | 475 kts | 183° |
| 2026-05-03 21:20 | 13.92710 | 36.21183 | 40852 ft | 475 kts | 183° |
| 2026-05-03 21:20 | 13.79490 | 36.20377 | 40855 ft | 475 kts | 183° |
| 2026-05-03 21:21 | 13.72892 | 36.20600 | 40858 ft | 475 kts | 170° |
| 2026-05-03 21:21 | 13.66617 | 36.22655 | 40855 ft | 475 kts | 156° |
| 2026-05-03 21:21 | 13.54813 | 36.28794 | 40857 ft | 476 kts | 152° |
| 2026-05-03 21:22 | 13.43050 | 36.35041 | 40862 ft | 476 kts | 153° |
| 2026-05-03 21:22 | 13.31233 | 36.41214 | 40870 ft | 476 kts | 153° |
| 2026-05-03 21:23 | 13.19438 | 36.47372 | 40884 ft | 476 kts | 153° |
| 2026-05-03 21:23 | 13.07684 | 36.53505 | 40882 ft | 476 kts | 153° |
| 2026-05-03 21:24 | 12.95862 | 36.59666 | 40897 ft | 477 kts | 153° |
| 2026-05-03 21:24 | 12.84027 | 36.65839 | 40911 ft | 477 kts | 153° |
| 2026-05-03 21:25 | 12.72194 | 36.72002 | 40910 ft | 477 kts | 153° |
| 2026-05-03 21:25 | 12.61063 | 36.77941 | 40943 ft | 477 kts | 152° |
| 2026-05-03 21:26 | 12.49342 | 36.84269 | 40954 ft | 476 kts | 152° |
| 2026-05-03 21:26 | 12.37600 | 36.90570 | 41001 ft | 476 kts | 152° |
| 2026-05-03 21:27 | 12.25901 | 36.96841 | 41034 ft | 474 kts | 152° |
| 2026-05-03 21:27 | 12.14198 | 37.03110 | 41034 ft | 475 kts | 152° |
| 2026-05-03 21:28 | 12.02534 | 37.09351 | 41056 ft | 472 kts | 152° |
| 2026-05-03 21:28 | 11.90853 | 37.15598 | 41065 ft | 477 kts | 153° |
| 2026-05-03 21:29 | 11.79099 | 37.21874 | 41067 ft | 477 kts | 153° |
| 2026-05-03 21:29 | 11.67336 | 37.28153 | 41068 ft | 477 kts | 153° |
| 2026-05-03 21:30 | 11.55656 | 37.34575 | 41084 ft | 477 kts | 150° |
| 2026-05-03 21:30 | 11.44255 | 37.41315 | 41082 ft | 477 kts | 150° |
| 2026-05-03 21:31 | 11.32749 | 37.48059 | 41094 ft | 477 kts | 151° |
| 2026-05-03 21:31 | 11.21224 | 37.54803 | 41107 ft | 478 kts | 151° |
| 2026-05-03 21:32 | 11.09675 | 37.61551 | 41115 ft | 478 kts | 151° |
| 2026-05-03 21:32 | 10.98121 | 37.68297 | 41133 ft | 479 kts | 151° |
| 2026-05-03 21:33 | 10.86582 | 37.75029 | 41146 ft | 478 kts | 151° |
| 2026-05-03 21:33 | 10.75050 | 37.81751 | 41154 ft | 477 kts | 151° |
| 2026-05-03 21:34 | 10.63538 | 37.88455 | 41156 ft | 477 kts | 151° |
| 2026-05-03 21:34 | 10.52010 | 37.95121 | 41153 ft | 477 kts | 152° |
| 2026-05-03 21:35 | 10.40379 | 38.01625 | 41137 ft | 476 kts | 152° |
| 2026-05-03 21:35 | 10.28762 | 38.08142 | 41131 ft | 477 kts | 152° |
| 2026-05-03 21:36 | 10.17156 | 38.14651 | 40984 ft | 468 kts | 152° |
| 2026-05-03 21:36 | 10.12020 | 38.17532 | 39202 ft | 462 kts | 152° |
| 2026-05-03 21:36 | 10.09184 | 38.19121 | 37715 ft | 469 kts | 152° |
| 2026-05-03 21:37 | 10.06310 | 38.20732 | 36312 ft | 473 kts | 152° |
| 2026-05-03 21:37 | 10.03418 | 38.22352 | 34983 ft | 476 kts | 152° |
| 2026-05-03 21:37 | 10.01456 | 38.23450 | 34051 ft | 480 kts | 152° |
| 2026-05-03 21:37 | 9.97523 | 38.25650 | 32616 ft | 491 kts | 152° |
| 2026-05-03 21:38 | 9.94542 | 38.27319 | 32003 ft | 488 kts | 151° |
| 2026-05-03 21:38 | 9.91579 | 38.28978 | 31433 ft | 484 kts | 151° |
| 2026-05-03 21:38 | 9.88647 | 38.30619 | 30877 ft | 480 kts | 151° |
| 2026-05-03 21:38 | 9.85733 | 38.32251 | 30325 ft | 477 kts | 151° |
| 2026-05-03 21:39 | 9.83775 | 38.33347 | 29923 ft | 475 kts | 151° |
| 2026-05-03 21:39 | 9.80893 | 38.34957 | 29327 ft | 470 kts | 151° |
| 2026-05-03 21:39 | 9.78045 | 38.36548 | 28786 ft | 465 kts | 150° |
| 2026-05-03 21:39 | 9.75222 | 38.38125 | 28255 ft | 461 kts | 150° |
| 2026-05-03 21:40 | 9.72428 | 38.39687 | 27719 ft | 456 kts | 150° |
| 2026-05-03 21:40 | 9.69690 | 38.41272 | 27188 ft | 452 kts | 147° |
| 2026-05-03 21:40 | 9.67308 | 38.43319 | 26593 ft | 448 kts | 130° |
| 2026-05-03 21:40 | 9.65449 | 38.45832 | 26058 ft | 444 kts | 124° |
| 2026-05-03 21:41 | 9.63728 | 38.48415 | 25523 ft | 441 kts | 123° |
| 2026-05-03 21:41 | 9.62022 | 38.50986 | 24987 ft | 438 kts | 124° |
| 2026-05-03 21:41 | 9.60344 | 38.53499 | 24441 ft | 435 kts | 124° |
| 2026-05-03 21:41 | 9.58647 | 38.56031 | 23947 ft | 432 kts | 124° |
| 2026-05-03 21:42 | 9.56962 | 38.58539 | 23332 ft | 429 kts | 124° |
| 2026-05-03 21:42 | 9.55286 | 38.61029 | 22590 ft | 429 kts | 124° |
| 2026-05-03 21:42 | 9.53601 | 38.63532 | 21826 ft | 429 kts | 124° |
| 2026-05-03 21:42 | 9.51926 | 38.66020 | 21232 ft | 426 kts | 124° |
| 2026-05-03 21:43 | 9.50261 | 38.68489 | 20676 ft | 421 kts | 124° |
| 2026-05-03 21:43 | 9.48621 | 38.70921 | 20131 ft | 416 kts | 124° |
| 2026-05-03 21:43 | 9.46991 | 38.73336 | 19581 ft | 413 kts | 123° |
| 2026-05-03 21:43 | 9.45380 | 38.75729 | 19032 ft | 409 kts | 123° |
| 2026-05-03 21:44 | 9.43783 | 38.78096 | 18499 ft | 406 kts | 123° |
| 2026-05-03 21:44 | 9.42195 | 38.80444 | 17932 ft | 402 kts | 123° |
| 2026-05-03 21:44 | 9.40627 | 38.82767 | 17359 ft | 397 kts | 123° |
| 2026-05-03 21:44 | 9.39082 | 38.85057 | 16839 ft | 392 kts | 123° |
| 2026-05-03 21:45 | 9.37555 | 38.87318 | 16314 ft | 387 kts | 123° |
| 2026-05-03 21:45 | 9.36042 | 38.89555 | 15795 ft | 382 kts | 123° |
| 2026-05-03 21:45 | 9.34550 | 38.91762 | 15337 ft | 377 kts | 122° |
| 2026-05-03 21:45 | 9.33092 | 38.93919 | 15079 ft | 363 kts | 122° |
| 2026-05-03 21:46 | 9.31710 | 38.95960 | 14732 ft | 341 kts | 122° |
| 2026-05-03 21:46 | 9.30423 | 38.97860 | 14438 ft | 320 kts | 122° |
| 2026-05-03 21:46 | 9.29209 | 38.99653 | 14214 ft | 299 kts | 122° |
| 2026-05-03 21:46 | 9.28073 | 39.01331 | 14053 ft | 278 kts | 121° |
| 2026-05-03 21:47 | 9.26933 | 39.02833 | 13930 ft | 264 kts | 131° |
| 2026-05-03 21:47 | 9.25465 | 39.03897 | 13770 ft | 258 kts | 153° |
| 2026-05-03 21:47 | 9.23794 | 39.04454 | 13680 ft | 247 kts | 162° |
| 2026-05-03 21:47 | 9.22166 | 39.04871 | 13547 ft | 236 kts | 163° |
| 2026-05-03 21:48 | 9.20603 | 39.05263 | 13401 ft | 225 kts | 163° |
| 2026-05-03 21:48 | 9.19103 | 39.05643 | 13274 ft | 222 kts | 163° |
| 2026-05-03 21:48 | 9.17605 | 39.06028 | 13156 ft | 222 kts | 162° |
| 2026-05-03 21:48 | 9.16104 | 39.06415 | 13019 ft | 224 kts | 162° |
| 2026-05-03 21:49 | 9.14559 | 39.06817 | 12957 ft | 233 kts | 163° |
| 2026-05-03 21:49 | 9.12976 | 39.07223 | 12884 ft | 235 kts | 163° |
| 2026-05-03 21:49 | 9.11342 | 39.07323 | 12588 ft | 239 kts | 189° |
| 2026-05-03 21:49 | 9.09888 | 39.06528 | 12194 ft | 241 kts | 224° |
| 2026-05-03 21:50 | 9.08750 | 39.05288 | 11883 ft | 240 kts | 229° |
| 2026-05-03 21:50 | 9.07680 | 39.04035 | 11625 ft | 236 kts | 229° |
| 2026-05-03 21:50 | 9.06620 | 39.02804 | 11375 ft | 232 kts | 228° |
| 2026-05-03 21:50 | 9.05557 | 39.01583 | 11128 ft | 230 kts | 228° |
| 2026-05-03 21:51 | 9.04495 | 39.00370 | 10889 ft | 230 kts | 227° |
| 2026-05-03 21:51 | 9.03554 | 38.99074 | 10655 ft | 229 kts | 242° |
| 2026-05-03 21:51 | 9.02988 | 38.97582 | 10409 ft | 227 kts | 255° |
| 2026-05-03 21:51 | 9.02569 | 38.96043 | 10239 ft | 227 kts | 255° |
| 2026-05-03 21:52 | 9.02131 | 38.94507 | 10209 ft | 228 kts | 254° |
| 2026-05-03 21:52 | 9.01678 | 38.92970 | 10009 ft | 227 kts | 253° |
| 2026-05-03 21:52 | 9.01230 | 38.91451 | 9671 ft | 223 kts | 253° |
| 2026-05-03 21:52 | 9.00807 | 38.89991 | 9375 ft | 208 kts | 254° |
| 2026-05-03 21:53 | 9.00417 | 38.88642 | 9114 ft | 193 kts | 253° |
| 2026-05-03 21:53 | 9.00054 | 38.87390 | 8875 ft | 179 kts | 253° |
| 2026-05-03 21:53 | 8.99711 | 38.86207 | 8621 ft | 173 kts | 253° |
| 2026-05-03 21:53 | 8.99368 | 38.85050 | 8367 ft | 170 kts | 253° |
| 2026-05-03 21:54 | 8.99044 | 38.83905 | 8132 ft | 167 kts | 254° |
| 2026-05-03 21:54 | 8.98716 | 38.82782 | 7879 ft | 165 kts | 253° |
| 2026-05-03 21:54 | 8.98398 | 38.81674 | 7686 ft | 163 kts | 254° |
| 2026-05-03 21:54 | 8.98083 | 38.80586 | 7575 ft | 157 kts | 254° |
| 2026-05-03 21:55 | 8.97806 | 38.79635 | 7564 ft | 114 kts | 253° |
| 2026-05-03 21:55 | 8.97631 | 38.79041 | 7557 ft | 73 kts | 253° |
| 2026-05-03 21:55 | 8.97504 | 38.78607 | 7558 ft | 45 kts | 253° |
| 2026-05-03 21:55 | 8.97444 | 38.78401 | 7558 ft | 20 kts | 254° |
| 2026-05-03 21:56 | 8.97417 | 38.78299 | 7557 ft | 10 kts | 266° |
| 2026-05-03 21:56 | 8.97457 | 38.78250 | 7559 ft | 9 kts | 332° |
| 2026-05-03 21:56 | 8.97522 | 38.78231 | 7558 ft | 10 kts | 346° |
| 2026-05-03 21:56 | 8.97597 | 38.78212 | 7558 ft | 12 kts | 346° |
| 2026-05-03 21:57 | 8.97680 | 38.78194 | 7557 ft | 12 kts | 356° |
| 2026-05-03 21:57 | 8.97733 | 38.78218 | 7557 ft | 8 kts | 47° |
| 2026-05-03 21:57 | 8.97757 | 38.78274 | 7553 ft | 9 kts | 74° |
| 2026-05-03 21:57 | 8.97776 | 38.78342 | 7565 ft | 12 kts | 74° |
| 2026-05-03 21:58 | 8.97800 | 38.78426 | 7563 ft | 9 kts | 74° |
| 2026-05-03 21:58 | 8.97786 | 38.78486 | 7563 ft | 9 kts | 136° |
| 2026-05-03 21:58 | 8.97741 | 38.78521 | 7567 ft | 6 kts | 118° |
| 2026-05-03 21:58 | 8.97742 | 38.78566 | 7564 ft | 7 kts | 76° |
| 2026-05-03 21:59 | 8.97761 | 38.78623 | 7564 ft | 10 kts | 75° |
| 2026-05-03 21:59 | 8.97783 | 38.78702 | 7564 ft | 13 kts | 73° |
| 2026-05-03 21:59 | 8.97842 | 38.78756 | 7564 ft | 11 kts | 31° |
| 2026-05-03 21:59 | 8.97875 | 38.78821 | 7564 ft | 11 kts | 73° |
| 2026-05-03 22:00 | 8.97897 | 38.78896 | 7564 ft | 11 kts | 73° |
| 2026-05-03 22:00 | 8.97921 | 38.78975 | 7567 ft | 12 kts | 73° |
| 2026-05-03 22:00 | 8.97946 | 38.79060 | 7564 ft | 13 kts | 73° |
| 2026-05-03 22:00 | 8.97971 | 38.79147 | 7564 ft | 13 kts | 73° |
| 2026-05-03 22:01 | 8.97994 | 38.79225 | 7567 ft | 10 kts | 73° |
| 2026-05-03 22:01 | 8.98011 | 38.79285 | 7564 ft | 9 kts | 73° |
| 2026-05-03 22:01 | 8.98031 | 38.79354 | 7564 ft | 11 kts | 74° |
| 2026-05-03 22:01 | 8.98054 | 38.79435 | 7564 ft | 13 kts | 74° |
| 2026-05-03 22:02 | 8.98080 | 38.79498 | 7564 ft | 3 kts | 36° |
| 2026-05-03 22:02 | 8.98085 | 38.79499 | 7564 ft | 2 kts | 20° |
| 2026-05-03 22:02 | 8.98119 | 38.79496 | 7566 ft | 9 kts | 348° |
| 2026-05-03 22:02 | 8.98169 | 38.79483 | 7564 ft | 3 kts | 344° |
| 2026-05-03 22:03 | 8.98175 | 38.79481 | 7564 ft | 1 kts | 344° |
| 2026-05-03 22:03 | 8.98181 | 38.79480 | 7564 ft | 0 kts | 344° |
| 2026-05-03 22:12 | 9.29374 | 38.99409 | 7564 ft | 14 kts | 122° |
| 2026-05-03 22:13 | 8.99099 | 38.84098 | 8181 ft | 167 kts | 254° |
| 2026-05-03 22:13 | 8.97826 | 38.79705 | 7562 ft | 120 kts | 253° |
| 2026-05-03 22:13 | 8.98193 | 38.80968 | 7587 ft | 161 kts | 254° |
| 2026-05-03 22:13 | 8.97892 | 38.79933 | 7567 ft | 136 kts | 253° |
| 2026-05-03 22:14 | 8.97717 | 38.79331 | 7562 ft | 91 kts | 253° |